createdAt,value
2019-03-10T00:01:49.331Z,5339.3
2019-03-10T00:11:48.543Z,5339.3
2019-03-10T00:21:47.756Z,5339.3
2019-03-10T00:31:46.969Z,5339.3
2019-03-10T00:41:46.181Z,5339.3
2019-03-10T00:51:46.202Z,5339.3
2019-03-10T01:01:45.399Z,5339.3
2019-03-10T01:11:44.613Z,5339.3
2019-03-10T01:21:43.824Z,5339.3
2019-03-10T01:31:43.043Z,5339.3
2019-03-10T01:41:42.249Z,5339.3
2019-03-10T01:51:41.461Z,5339.3
2019-03-10T02:01:40.674Z,5339.3
2019-03-10T02:11:39.886Z,5339.3
2019-03-10T02:21:39.099Z,5339.3
2019-03-10T02:31:38.314Z,5339.3
2019-03-10T02:41:37.523Z,5339.3
2019-03-10T02:51:36.737Z,5339.3
2019-03-10T03:01:35.956Z,5339.3
2019-03-10T03:11:35.157Z,5339.3
2019-03-10T03:21:42.699Z,5339.3
2019-03-10T03:31:33.580Z,5339.4
2019-03-10T03:41:32.792Z,5339.6
2019-03-10T03:51:32.011Z,5339.9
2019-03-10T04:01:31.215Z,5340
2019-03-10T04:11:30.426Z,5340
2019-03-10T04:21:29.638Z,5340
2019-03-10T04:31:28.870Z,5340
2019-03-10T04:41:28.058Z,5340
2019-03-10T04:51:27.265Z,5340
2019-03-10T05:01:26.477Z,5340
2019-03-10T05:11:25.685Z,5340
2019-03-10T05:21:24.896Z,5340
2019-03-10T05:31:24.105Z,5340
2019-03-10T05:41:23.315Z,5340
2019-03-10T05:51:22.524Z,5340
2019-03-10T06:01:21.734Z,5340
2019-03-10T06:11:20.943Z,5340
2019-03-10T06:21:20.172Z,5340
2019-03-10T06:31:19.368Z,5340
2019-03-10T06:41:18.577Z,5340
2019-03-10T06:51:17.796Z,5340
2019-03-10T07:01:17.003Z,5340
2019-03-10T07:11:16.223Z,5340.2
2019-03-10T07:21:15.428Z,5340.4
2019-03-10T07:31:14.649Z,5340.7
2019-03-10T07:41:13.851Z,5340.9
2019-03-10T07:51:13.062Z,5341.1
2019-03-10T08:01:12.276Z,5341.1
2019-03-10T08:11:11.489Z,5341.1
2019-03-10T08:21:10.704Z,5341.2
2019-03-10T08:31:09.922Z,5341.4
2019-03-10T08:41:09.130Z,5341.7
2019-03-10T08:51:08.349Z,5341.9
2019-03-10T09:01:09.956Z,5342
2019-03-10T09:11:06.771Z,5342
2019-03-10T09:21:05.985Z,5342.3
2019-03-10T09:31:05.206Z,5342.5
2019-03-10T09:41:04.412Z,5342.7
2019-03-10T09:51:03.632Z,5343
2019-03-10T10:01:02.892Z,5343.2
2019-03-10T10:11:02.054Z,5343.3
2019-03-10T10:21:01.268Z,5343.6
2019-03-10T10:31:00.481Z,5343.8
2019-03-10T10:40:59.699Z,5344
2019-03-10T10:50:58.934Z,5344.3
2019-03-10T11:00:58.225Z,5344.5
2019-03-10T11:10:57.336Z,5344.8
2019-03-10T11:20:56.551Z,5344.9
2019-03-10T11:30:55.767Z,5344.9
2019-03-10T11:40:54.979Z,5344.9
2019-03-10T11:50:54.194Z,5345.2
2019-03-10T12:00:53.457Z,5345.2
2019-03-10T12:10:52.621Z,5345.2
2019-03-10T12:20:51.834Z,5345.5
2019-03-10T12:30:51.046Z,5345.5
2019-03-10T12:43:42.139Z,5345.5
2019-03-10T12:53:41.351Z,5345.5
2019-03-10T13:03:40.623Z,5345.5
2019-03-10T13:13:39.775Z,5345.5
2019-03-10T13:23:38.986Z,5345.5
2019-03-10T13:33:38.197Z,5345.5
2019-03-10T13:43:37.443Z,5345.5
2019-03-10T13:53:36.788Z,5345.5
2019-03-10T14:03:36.019Z,5345.5
2019-03-10T14:13:35.311Z,5345.5
2019-03-10T14:23:34.597Z,5345.7
2019-03-10T14:33:33.889Z,5345.8
2019-03-10T14:43:33.106Z,5345.8
2019-03-10T14:53:32.319Z,5345.8
2019-03-10T15:03:31.529Z,5345.8
2019-03-10T15:13:30.746Z,5345.8
2019-03-10T15:23:29.957Z,5346
2019-03-10T15:33:29.171Z,5346.1
2019-03-10T15:43:28.385Z,5346.1
2019-03-10T15:53:27.599Z,5346.1
2019-03-10T16:03:26.813Z,5346.4
2019-03-10T16:13:26.027Z,5346.5
2019-03-10T16:23:25.246Z,5346.5
2019-03-10T16:33:25.402Z,5346.5
2019-03-10T16:43:23.670Z,5346.8
2019-03-10T16:53:23.884Z,5347
2019-03-10T17:03:23.050Z,5347.1
2019-03-10T17:13:22.261Z,5347.1
2019-03-10T17:23:21.475Z,5347.1
2019-03-10T17:33:20.740Z,5347.1
2019-03-10T17:43:19.906Z,5347.2
2019-03-10T17:53:19.117Z,5347.5
2019-03-10T18:03:18.333Z,5347.5
2019-03-10T18:13:17.550Z,5347.5
2019-03-10T18:23:16.770Z,5347.5
2019-03-10T18:33:15.992Z,5347.5
2019-03-10T18:43:15.217Z,5347.7
2019-03-10T18:53:14.437Z,5347.9
2019-03-10T19:03:13.662Z,5347.9
2019-03-10T19:13:12.888Z,5347.9
2019-03-10T19:23:12.116Z,5347.9
2019-03-10T19:33:11.331Z,5348
2019-03-10T19:43:10.553Z,5348.3
2019-03-10T19:53:09.772Z,5348.5
2019-03-10T20:03:09.708Z,5348.8
2019-03-10T20:13:08.210Z,5349
2019-03-10T20:23:07.427Z,5349
2019-03-10T20:33:06.661Z,5349.2
2019-03-10T20:43:05.868Z,5349.5
2019-03-10T20:53:05.079Z,5349.7
2019-03-10T21:03:04.297Z,5349.9
2019-03-10T21:14:38.704Z,5349.5
2019-03-10T21:24:37.920Z,5349.7
2019-03-10T21:34:37.136Z,5350
2019-03-10T21:44:36.353Z,5350.1
2019-03-10T21:54:35.576Z,5350.1
2019-03-10T22:04:34.792Z,5350.1
2019-03-10T22:14:34.055Z,5350.1
2019-03-10T22:24:33.349Z,5350.1
2019-03-10T22:34:32.646Z,5350.1
2019-03-10T22:44:31.931Z,5350.1
2019-03-10T22:54:31.222Z,5350.1
2019-03-10T23:04:30.513Z,5350.1
2019-03-10T23:14:29.737Z,5350.1
2019-03-10T23:24:28.948Z,5350.1
2019-03-10T23:34:28.159Z,5350.1
2019-03-10T23:44:27.384Z,5350.1
2019-03-10T23:54:26.588Z,5350.1
